Time;durP1;ratioP1;P1;durP2;ratioP2;P2;SDS_P1;SDS_P2;PMS_P1;PMS_P2;Temp;Humidity;BMP_temperature;BMP_pressure;BME280_temperature;BME280_humidity;BME280_pressure;Samples;Min_cycle;Max_cycle;Signal;HPM_P1;HPM_P2
2023/01/16 00:01:40;;;;;;;1.08;0.50;;;;;;;4.88;79.71;99297.28;5981048;29;20085;-73
2023/01/16 00:04:35;;;;;;;2.37;0.60;;;;;;;4.74;79.85;99291.53;5980923;29;20126;-72
2023/01/16 00:07:31;;;;;;;4.00;0.90;;;;;;;4.71;80.57;99283.13;5981459;29;20105;-72
2023/01/16 00:10:26;;;;;;;1.50;0.80;;;;;;;4.61;80.72;99282.34;5981756;29;20066;-71
2023/01/16 00:13:21;;;;;;;3.97;0.70;;;;;;;4.61;80.71;99285.78;5980293;29;20042;-71
2023/01/16 00:16:18;;;;;;;3.73;0.50;;;;;;;4.55;81.23;99280.28;5981588;29;20483;-70
2023/01/16 00:19:14;;;;;;;2.55;0.93;;;;;;;4.50;82.10;99267.59;5980991;29;20046;-71
2023/01/16 00:22:09;;;;;;;3.50;0.50;;;;;;;4.59;81.67;99286.91;5980804;29;20843;-73
2023/01/16 00:25:05;;;;;;;1.83;0.70;;;;;;;4.56;82.05;99268.81;5980895;29;20506;-73
2023/01/16 00:28:00;;;;;;;1.50;0.70;;;;;;;4.58;82.11;99283.44;5981287;29;20038;-72
2023/01/16 00:30:55;;;;;;;2.03;0.60;;;;;;;4.52;82.05;99263.00;5981215;29;20039;-70
2023/01/16 00:33:52;;;;;;;1.77;0.63;;;;;;;4.52;81.90;99260.41;5979276;29;20051;-71
2023/01/16 00:36:47;;;;;;;4.05;0.80;;;;;;;4.68;81.37;99265.84;5981234;29;20031;-70
2023/01/16 00:39:43;;;;;;;1.80;0.60;;;;;;;4.64;81.53;99251.38;5980709;29;20101;-69
2023/01/16 00:42:38;;;;;;;0.83;0.60;;;;;;;4.67;81.61;99248.44;5978732;29;20083;-71
2023/01/16 00:45:33;;;;;;;2.33;0.70;;;;;;;4.61;81.79;99238.53;5980459;28;20159;-69
2023/01/16 00:48:28;;;;;;;2.95;0.65;;;;;;;4.60;82.51;99244.75;5980438;28;20038;-71
2023/01/16 00:51:24;;;;;;;2.13;0.70;;;;;;;4.53;82.40;99242.84;5980460;29;20043;-72
2023/01/16 00:54:19;;;;;;;1.77;0.70;;;;;;;4.49;83.30;99236.22;5978955;29;20102;-71
2023/01/16 00:57:15;;;;;;;3.03;0.70;;;;;;;4.56;82.97;99246.03;5980656;29;20067;-72
2023/01/16 01:00:10;;;;;;;3.67;1.20;;;;;;;4.55;82.60;99240.91;5980360;29;20043;-70
2023/01/16 01:03:06;;;;;;;2.15;0.60;;;;;;;4.46;83.32;99229.47;5979007;29;20042;-71
2023/01/16 01:06:08;;;;;;;2.95;0.57;;;;;;;4.44;83.85;99223.53;5980275;29;20098;-72
2023/01/16 01:09:03;;;;;;;1.60;0.63;;;;;;;4.35;84.00;99229.63;5979931;29;20423;-69
2023/01/16 01:11:58;;;;;;;7.27;0.80;;;;;;;4.29;84.83;99245.16;5979805;29;20123;-70
2023/01/16 01:14:54;;;;;;;1.92;0.60;;;;;;;4.20;84.90;99247.66;5979520;29;20122;-69
2023/01/16 01:17:49;;;;;;;4.33;0.80;;;;;;;3.93;85.65;99212.66;5980080;29;20395;-71
2023/01/16 01:20:46;;;;;;;1.97;0.80;;;;;;;4.10;85.81;99230.28;5979746;29;20049;-69
2023/01/16 01:23:41;;;;;;;0.95;0.57;;;;;;;4.03;86.63;99227.38;5978393;28;20035;-69
2023/01/16 01:26:36;;;;;;;4.43;1.10;;;;;;;3.99;86.57;99227.81;5979968;29;20078;-70
2023/01/16 01:29:32;;;;;;;1.60;0.80;;;;;;;3.81;86.97;99209.34;5979395;29;20043;-74
2023/01/16 01:32:27;;;;;;;3.27;0.80;;;;;;;3.78;87.93;99207.00;5979199;29;20035;-71
2023/01/16 01:35:22;;;;;;;0.70;0.50;;;;;;;3.84;87.57;99216.09;5979605;29;20111;-71
2023/01/16 01:38:17;;;;;;;2.00;0.60;;;;;;;3.91;87.68;99225.91;5979438;29;20035;-72
2023/01/16 01:41:13;;;;;;;3.53;0.80;;;;;;;3.94;88.14;99206.44;5979490;29;20487;-72
2023/01/16 01:44:46;;;;;;;2.75;0.85;;;;;;;4.03;88.37;99214.28;5978591;28;20031;-71
2023/01/16 01:47:44;;;;;;;4.65;0.75;;;;;;;4.12;87.74;99202.13;5979535;29;20054;-72
2023/01/16 01:50:56;;;;;;;2.55;0.85;;;;;;;4.17;87.26;99203.34;5979053;29;20066;-71
2023/01/16 01:53:58;;;;;;;3.50;0.73;;;;;;;4.14;86.49;99185.25;5978576;29;20039;-71
2023/01/16 01:56:59;;;;;;;3.22;0.80;;;;;;;4.19;87.00;99192.69;5979248;29;20075;-71
2023/01/16 02:00:03;;;;;;;2.13;0.73;;;;;;;4.03;87.67;99171.47;5961176;29;20042;-72
2023/01/16 02:03:04;;;;;;;5.82;1.83;;;;;;;3.98;88.36;99189.44;5978801;29;20054;-72
2023/01/16 02:06:01;;;;;;;3.08;0.82;;;;;;;3.84;88.74;99182.03;5961769;29;20450;-73
2023/01/16 02:08:56;;;;;;;2.58;1.00;;;;;;;3.81;89.67;99172.66;5962044;29;20043;-71
2023/01/16 02:11:53;;;;;;;3.70;1.00;;;;;;;3.77;89.97;99170.47;5978741;29;20094;-72
2023/01/16 02:14:50;;;;;;;0.98;0.60;;;;;;;3.71;89.21;99166.59;5978611;29;20027;-72
2023/01/16 02:21:31;;;;;;;1.60;0.80;;;;;;;3.47;90.28;99142.66;5978449;29;20043;-73
2023/01/16 02:24:48;;;;;;;0.60;0.52;;;;;;;3.49;90.77;99141.53;5977691;29;20475;-73
2023/01/16 02:28:31;;;;;;;5.57;0.73;;;;;;;3.44;91.20;99140.31;5979107;29;20043;-71
2023/01/16 02:31:36;;;;;;;2.95;0.60;;;;;;;3.43;91.07;99120.28;5968650;29;20070;-73
2023/01/16 02:35:05;;;;;;;4.28;0.77;;;;;;;3.55;91.04;99133.13;5960186;29;20551;-71
2023/01/16 02:38:09;;;;;;;2.05;1.08;;;;;;;3.54;91.34;99118.34;5978807;29;20038;-72
2023/01/16 02:41:30;;;;;;;1.20;0.55;;;;;;;3.73;91.10;99111.41;5979193;29;20406;-71
2023/01/16 02:44:44;;;;;;;;;;;;;;;3.85;90.46;99115.53;5956630;28;20376;-70
2023/01/16 02:47:46;;;;;;;8.32;1.20;;;;;;;3.91;89.56;99096.59;5978510;29;19922;-70
2023/01/16 02:50:52;;;;;;;4.57;0.75;;;;;;;4.00;88.84;99104.41;5978148;29;20035;-72
2023/01/16 02:54:14;;;;;;;3.22;0.80;;;;;;;3.98;88.73;99095.03;5960820;29;20039;-72
2023/01/16 02:57:20;;;;;;;3.35;0.68;;;;;;;3.88;89.39;99079.38;5961378;29;20130;-73
2023/01/16 03:00:16;;;;;;;2.40;0.60;;;;;;;3.90;89.34;99079.22;5961425;29;20043;-73
2023/01/16 03:03:31;;;;;;;4.50;0.80;;;;;;;3.90;89.59;99072.19;5976594;29;20611;-73
2023/01/16 03:06:43;;;;;;;1.30;0.80;;;;;;;3.84;89.87;99061.44;5978881;29;20399;-71
2023/01/16 03:09:48;;;;;;;2.83;0.60;;;;;;;3.80;89.63;99053.03;5968100;28;20090;-73
2023/01/16 03:12:52;;;;;;;8.73;1.48;;;;;;;3.94;89.32;99049.94;5953000;29;20038;-71
2023/01/16 03:15:50;;;;;;;2.83;0.90;;;;;;;3.91;89.31;99052.03;5982734;29;20126;-72
2023/01/16 03:19:02;;;;;;;2.92;0.82;;;;;;;3.84;90.23;99057.00;5982608;29;20098;-72
2023/01/16 03:22:19;;;;;;;4.10;0.80;;;;;;;3.83;89.97;99050.09;5964482;29;20051;-72
2023/01/16 03:25:22;;;;;;;1.50;0.80;;;;;;;3.83;89.95;99038.81;5982691;29;20471;-70
2023/01/16 03:28:26;;;;;;;5.70;0.93;;;;;;;3.86;89.15;99038.53;5965461;29;20122;-71
2023/01/16 03:31:41;;;;;;;3.00;0.73;;;;;;;3.81;89.63;99031.09;5981876;29;20085;-70
2023/01/16 03:34:51;;;;;;;2.78;0.60;;;;;;;3.85;89.61;99036.88;5964167;29;20053;-71
2023/01/16 03:37:50;;;;;;;4.90;0.50;;;;;;;3.90;89.07;99039.88;5965185;29;20042;-72
2023/01/16 03:40:46;;;;;;;0.65;0.45;;;;;;;3.95;90.04;99029.78;5964944;29;20042;-73
2023/01/16 03:43:45;;;;;;;0.75;0.52;;;;;;;3.83;89.76;99002.91;5981765;29;20454;-71
2023/01/16 03:46:49;;;;;;;1.45;0.70;;;;;;;3.84;89.80;99014.25;5969026;29;20043;-73
2023/01/16 03:49:48;;;;;;;1.08;0.50;;;;;;;3.63;90.26;98992.69;5982281;29;20455;-72
2023/01/16 03:52:50;;;;;;;3.78;0.55;;;;;;;3.60;90.74;98994.63;5962075;29;20050;-73
2023/01/16 03:55:54;;;;;;;1.35;0.55;;;;;;;3.67;90.59;98996.69;5981603;29;20131;-72
2023/01/16 03:58:50;;;;;;;3.53;1.02;;;;;;;3.60;90.82;98978.91;5981835;29;20027;-71
2023/01/16 04:01:50;;;;;;;4.55;0.63;;;;;;;3.68;90.13;98987.81;5980978;29;20046;-73
2023/01/16 04:04:51;;;;;;;3.45;0.52;;;;;;;3.56;90.86;98974.91;5964675;29;20365;-72
2023/01/16 04:07:53;;;;;;;1.25;0.65;;;;;;;3.38;91.29;98963.56;5981844;29;20039;-72
2023/01/16 04:10:49;;;;;;;3.78;0.75;;;;;;;3.41;91.48;98960.66;5964596;29;20089;-73
2023/01/16 04:13:48;;;;;;;4.03;0.60;;;;;;;3.52;91.36;98975.34;5963317;29;20372;-71
2023/01/16 04:16:44;;;;;;;3.22;1.00;;;;;;;3.52;90.92;98973.56;5964294;29;20463;-72
2023/01/16 04:19:39;;;;;;;3.23;0.70;;;;;;;3.46;91.25;98965.44;5964225;29;20050;-72
2023/01/16 04:22:34;;;;;;;1.97;0.63;;;;;;;3.29;91.14;98947.88;5979464;28;20291;-72
2023/01/16 04:25:30;;;;;;;2.03;0.80;;;;;;;3.32;92.15;98958.88;5981270;29;20054;-73
2023/01/16 04:28:25;;;;;;;3.70;1.30;;;;;;;3.31;92.47;98940.69;5964148;29;20442;-72
2023/01/16 04:31:22;;;;;;;1.80;0.75;;;;;;;3.31;91.69;98952.00;5980881;29;20027;-71
2023/01/16 04:34:18;;;;;;;4.10;0.90;;;;;;;3.35;92.39;98935.03;5979980;29;20039;-71
2023/01/16 04:37:14;;;;;;;4.57;1.10;;;;;;;3.42;92.16;98930.88;5980846;29;20123;-74
2023/01/16 04:40:10;;;;;;;3.53;0.90;;;;;;;3.43;91.90;98932.50;5981070;29;20395;-72
2023/01/16 04:43:05;;;;;;;2.88;0.73;;;;;;;3.56;91.92;98934.81;5979517;29;20039;-73
2023/01/16 04:46:00;;;;;;;3.07;0.97;;;;;;;3.56;91.57;98925.13;5980376;28;20055;-71
2023/01/16 04:48:56;;;;;;;0.87;0.60;;;;;;;3.63;91.51;98920.13;5980781;29;20035;-71
2023/01/16 04:51:51;;;;;;;2.03;0.83;;;;;;;3.70;91.46;98915.13;5977341;29;20310;-71
2023/01/16 04:54:46;;;;;;;3.00;0.63;;;;;;;3.65;91.22;98917.34;5980633;29;20353;-73
2023/01/16 04:57:42;;;;;;;1.33;1.20;;;;;;;3.61;91.09;98901.94;5980152;29;20289;-73
2023/01/16 05:00:37;;;;;;;2.47;0.90;;;;;;;3.55;91.59;98899.91;5980810;29;20027;-71
2023/01/16 05:03:32;;;;;;;2.30;0.47;;;;;;;3.43;91.46;98895.81;5979304;29;20059;-72
2023/01/16 05:06:27;;;;;;;2.13;0.63;;;;;;;3.38;92.85;98879.72;5980423;29;20045;-73
2023/01/16 05:09:23;;;;;;;2.60;0.80;;;;;;;3.35;92.77;98893.13;5980705;29;20475;-73
2023/01/16 05:12:18;;;;;;;3.73;0.87;;;;;;;3.20;93.19;98863.16;5979462;29;20045;-72
2023/01/16 05:15:13;;;;;;;2.37;0.90;;;;;;;3.21;93.10;98866.56;5980542;29;20035;-71
2023/01/16 05:18:09;;;;;;;4.23;1.07;;;;;;;3.16;93.00;98877.47;5979706;29;20501;-72
2023/01/16 05:21:04;;;;;;;4.17;1.47;;;;;;;3.29;93.44;98871.94;5979648;29;20051;-71
2023/01/16 05:24:00;;;;;;;11.35;1.92;;;;;;;3.12;93.44;98854.38;5978604;29;20027;-72
2023/01/16 05:26:55;;;;;;;7.77;2.03;;;;;;;3.17;93.65;98863.44;5979892;29;20555;-71
2023/01/16 05:29:50;;;;;;;3.83;1.10;;;;;;;3.08;94.55;98851.19;5980169;28;20037;-73
2023/01/16 05:32:45;;;;;;;5.83;1.27;;;;;;;3.12;94.75;98865.66;5978759;28;20047;-71
2023/01/16 05:35:41;;;;;;;8.80;0.90;;;;;;;3.05;94.54;98855.88;5979320;29;20027;-73
2023/01/16 05:38:36;;;;;;;2.17;0.70;;;;;;;3.06;94.95;98847.06;5975254;29;20045;-72
2023/01/16 05:41:31;;;;;;;3.33;0.90;;;;;;;3.12;94.90;98846.50;5971613;29;20038;-73
2023/01/16 05:44:27;;;;;;;2.83;0.80;;;;;;;3.15;94.81;98852.28;5978821;28;20031;-70
2023/01/16 05:47:22;;;;;;;3.80;1.07;;;;;;;3.19;94.63;98851.00;5979629;29;20042;-72
2023/01/16 05:50:17;;;;;;;2.90;1.07;;;;;;;3.10;94.77;98843.22;5979122;29;20031;-70
2023/01/16 05:53:13;;;;;;;4.10;1.10;;;;;;;3.23;94.88;98847.16;5979095;29;20035;-71
2023/01/16 05:56:09;;;;;;;3.77;0.90;;;;;;;3.20;94.41;98842.19;5978967;29;20047;-73
2023/01/16 05:59:05;;;;;;;2.45;1.10;;;;;;;3.16;95.29;98853.91;5979317;29;20521;-72
2023/01/16 06:02:00;;;;;;;2.10;0.90;;;;;;;3.11;95.77;98832.59;5977535;29;20039;-71
2023/01/16 06:04:55;;;;;;;4.20;1.20;;;;;;;3.14;95.18;98821.81;5979088;29;20127;-71
2023/01/16 06:07:54;;;;;;;3.15;0.95;;;;;;;3.34;94.89;98833.81;5977163;28;20027;-71
2023/01/16 06:10:50;;;;;;;4.70;1.10;;;;;;;3.30;94.91;98815.94;5978996;28;20153;-72
2023/01/16 06:13:45;;;;;;;3.60;0.70;;;;;;;3.31;94.84;98807.97;5977261;28;20474;-72
2023/01/16 06:16:40;;;;;;;2.03;0.70;;;;;;;3.42;94.64;98822.63;5987793;28;20046;-73
2023/01/16 06:19:36;;;;;;;2.20;0.80;;;;;;;3.42;95.73;98823.47;5983986;28;20091;-72
2023/01/16 06:22:31;;;;;;;3.28;1.75;;;;;;;3.36;97.07;98803.09;5978571;29;20059;-71
2023/01/16 06:25:26;;;;;;;2.87;0.73;;;;;;;3.31;99.09;98792.25;5978672;29;20403;-72
2023/01/16 06:28:22;;;;;;;2.67;1.03;;;;;;;3.26;100.00;98789.22;5979038;29;20043;-71
2023/01/16 06:31:17;;;;;;;4.53;1.00;;;;;;;3.25;100.00;98782.34;5978636;28;20027;-71
2023/01/16 06:34:12;;;;;;;3.03;1.20;;;;;;;3.27;100.00;98774.31;5977691;29;20098;-72
2023/01/16 06:37:08;;;;;;;6.07;1.67;;;;;;;3.28;100.00;98771.56;5978273;29;20491;-71
2023/01/16 06:40:03;;;;;;;4.93;1.58;;;;;;;3.26;100.00;98773.50;5973945;29;20031;-72
2023/01/16 06:42:59;;;;;;;6.53;2.63;;;;;;;3.27;100.00;98759.44;5976448;29;20143;-73
2023/01/16 06:45:54;;;;;;;6.23;1.57;;;;;;;3.16;100.00;98740.50;5980911;28;20522;-71
2023/01/16 06:48:50;;;;;;;3.55;1.20;;;;;;;3.15;100.00;98749.34;5983199;29;20406;-71
2023/01/16 06:51:45;;;;;;;8.17;2.17;;;;;;;3.13;100.00;98741.63;5983256;29;20432;-72
2023/01/16 06:54:40;;;;;;;2.10;1.00;;;;;;;3.20;100.00;98742.69;5982628;29;20513;-71
2023/01/16 06:57:36;;;;;;;2.17;0.90;;;;;;;3.11;100.00;98724.41;5983111;29;20042;-71
2023/01/16 07:00:31;;;;;;;5.03;1.35;;;;;;;3.12;100.00;98719.03;5983430;29;20043;-70
2023/01/16 07:03:26;;;;;;;3.13;1.07;;;;;;;3.26;100.00;98731.59;5977856;28;20082;-72
2023/01/16 07:06:22;;;;;;;4.60;2.17;;;;;;;3.17;100.00;98715.97;5994787;28;20278;-70
2023/01/16 07:09:17;;;;;;;4.57;1.13;;;;;;;3.12;100.00;98703.34;5982663;29;20049;-72
2023/01/16 07:12:12;;;;;;;4.73;1.37;;;;;;;3.18;100.00;98717.63;5981788;29;20471;-72
2023/01/16 07:24:50;;;;;;;5.50;1.00;;;;;;;2.89;100.00;98707.31;5977813;28;20031;-70
2023/01/16 07:27:48;;;;;;;2.13;0.80;;;;;;;2.96;100.00;98708.41;5973971;29;20039;-70
2023/01/16 07:30:44;;;;;;;4.20;1.17;;;;;;;2.78;100.00;98691.81;5965151;29;20051;-73
2023/01/16 07:33:39;;;;;;;8.95;1.73;;;;;;;2.77;100.00;98682.34;5981754;29;20042;-71
2023/01/16 07:36:34;;;;;;;2.47;1.13;;;;;;;2.78;100.00;98686.59;5981677;29;20538;-72
2023/01/16 07:39:29;;;;;;;3.03;1.17;;;;;;;2.72;100.00;98668.84;5982184;29;20078;-73
2023/01/16 07:42:25;;;;;;;3.97;1.13;;;;;;;2.81;100.00;98667.97;5980963;29;20035;-73
2023/01/16 07:45:20;;;;;;;2.03;1.13;;;;;;;2.85;100.00;98664.91;5982445;29;20087;-71
2023/01/16 07:48:15;;;;;;;2.60;1.10;;;;;;;2.75;100.00;98655.47;5981885;29;20475;-71
2023/01/16 07:51:10;;;;;;;4.47;1.30;;;;;;;2.82;99.84;98664.41;5981281;29;20046;-73
2023/01/16 07:54:07;;;;;;;4.60;1.70;;;;;;;2.88;99.71;98658.59;5981060;29;20075;-73
2023/01/16 07:57:03;;;;;;;2.92;1.33;;;;;;;2.88;99.46;98658.59;5980051;28;20070;-72
2023/01/16 07:59:58;;;;;;;3.43;1.20;;;;;;;2.81;99.11;98640.03;5981625;29;20410;-72
2023/01/16 08:02:53;;;;;;;5.93;1.70;;;;;;;2.96;99.02;98649.00;5981065;29;20057;-73
2023/01/16 08:05:52;;;;;;;3.67;1.50;;;;;;;2.92;98.73;98633.75;5981160;29;20039;-73
2023/01/16 08:08:47;;;;;;;7.07;1.95;;;;;;;2.90;98.02;98631.28;5981416;29;20032;-71
2023/01/16 08:11:46;;;;;;;5.13;1.73;;;;;;;2.85;98.81;98627.47;5980766;29;20422;-72
2023/01/16 08:14:41;;;;;;;5.35;1.80;;;;;;;2.97;98.22;98644.59;5981067;29;20028;-71
2023/01/16 08:17:40;;;;;;;4.00;1.95;;;;;;;3.03;97.54;98636.16;5981415;29;20039;-70
2023/01/16 08:20:35;;;;;;;5.57;1.58;;;;;;;3.05;97.30;98626.34;5981000;29;20496;-71
2023/01/16 08:23:31;;;;;;;11.57;1.87;;;;;;;3.11;96.61;98627.53;5980377;29;20028;-72
2023/01/16 08:26:26;;;;;;;2.63;1.20;;;;;;;3.20;96.58;98621.41;5980483;29;20031;-71
2023/01/16 08:29:22;;;;;;;3.87;1.60;;;;;;;3.32;96.60;98610.53;5980848;29;20581;-72
2023/01/16 08:32:17;;;;;;;4.57;1.40;;;;;;;3.52;95.33;98595.44;5987774;28;20442;-73
2023/01/16 08:35:13;;;;;;;3.83;1.40;;;;;;;3.68;94.29;98587.69;5987391;28;20031;-71
2023/01/16 08:38:08;;;;;;;3.87;0.77;;;;;;;3.85;93.26;98588.59;5979931;29;20491;-70
2023/01/16 08:41:03;;;;;;;2.80;1.07;;;;;;;4.07;92.15;98575.78;5980585;29;20118;-70
2023/01/16 08:53:56;;;;;;;4.47;1.33;;;;;;;4.04;91.25;98570.03;5964719;29;20039;-73
2023/01/16 08:56:52;;;;;;;4.68;1.60;;;;;;;4.01;90.99;98559.84;5980266;29;20027;-72
2023/01/16 08:59:47;;;;;;;4.43;1.20;;;;;;;3.98;91.12;98544.44;5979958;29;20538;-73
2023/01/16 09:02:42;;;;;;;6.20;1.40;;;;;;;4.00;91.55;98558.19;5979421;29;20040;-73
2023/01/16 09:05:37;;;;;;;4.23;1.43;;;;;;;4.06;92.21;98552.31;5980170;29;20023;-73
2023/01/16 09:08:33;;;;;;;4.13;1.20;;;;;;;4.02;91.66;98537.91;5979420;28;20038;-72
2023/01/16 09:14:42;;;;;;;4.65;1.50;;;;;;;4.17;91.29;98538.94;5979588;29;20036;-73
2023/01/16 09:17:37;;;;;;;3.97;1.13;;;;;;;4.25;91.44;98551.25;5979961;29;20043;-73
2023/01/16 09:20:32;;;;;;;2.57;0.90;;;;;;;4.18;90.92;98533.50;5979712;28;20045;-72
2023/01/16 09:23:28;;;;;;;1.37;0.70;;;;;;;4.21;90.27;98521.91;5978434;29;20078;-73
2023/01/16 09:26:23;;;;;;;1.50;0.80;;;;;;;4.22;90.45;98534.03;5979512;29;20249;-73
2023/01/16 09:29:18;;;;;;;2.47;0.90;;;;;;;4.44;90.72;98536.06;5979683;29;20066;-71
2023/01/16 09:32:14;;;;;;;2.20;0.90;;;;;;;4.45;89.50;98529.00;5979163;29;20082;-72
2023/01/16 09:35:09;;;;;;;2.00;0.80;;;;;;;4.35;89.61;98523.09;5978806;29;20034;-72
2023/01/16 09:38:04;;;;;;;2.70;1.07;;;;;;;4.36;89.68;98508.97;5979793;29;20031;-70
2023/01/16 09:41:00;;;;;;;4.53;1.50;;;;;;;4.43;89.73;98520.47;5979633;29;20093;-71
2023/01/16 09:43:55;;;;;;;2.70;1.45;;;;;;;4.61;88.25;98515.91;5961178;28;20478;-72
2023/01/16 09:46:51;;;;;;;6.00;1.50;;;;;;;4.72;86.77;98497.22;5979275;29;20372;-72
2023/01/16 09:49:50;;;;;;;3.80;1.50;;;;;;;4.73;85.42;98477.84;5978806;29;20267;-72
2023/01/16 09:59:27;;;;;;;2.10;0.80;;;;;;;4.87;83.42;98453.56;5964242;29;20068;-72
2023/01/16 10:02:29;;;;;;;2.15;0.77;;;;;;;4.96;83.25;98446.50;5961134;29;20122;-73
2023/01/16 10:05:24;;;;;;;;;;;;;;;5.04;81.74;98426.28;5979369;29;20046;-71
2023/01/16 10:08:41;;;;;;;2.40;0.70;;;;;;;5.00;81.54;98408.41;5961585;29;19918;-72
2023/01/16 10:11:48;;;;;;;1.50;0.70;;;;;;;5.06;82.27;98405.09;5968266;28;20118;-73
2023/01/16 10:15:21;;;;;;;3.45;0.93;;;;;;;5.08;82.29;98393.44;5961415;29;20053;-71
2023/01/16 10:18:25;;;;;;;3.40;0.80;;;;;;;5.04;82.62;98396.56;5977496;29;20031;-71
2023/01/16 10:22:09;;;;;;;4.68;0.90;;;;;;;5.09;82.27;98389.00;5960005;29;20058;-72
2023/01/16 10:25:16;;;;;;;3.92;0.88;;;;;;;5.09;81.72;98378.50;5969605;29;20102;-72
2023/01/16 10:28:27;;;;;;;2.20;0.85;;;;;;;5.11;81.42;98360.78;5978754;29;20057;-74
2023/01/16 10:31:40;;;;;;;6.15;1.30;;;;;;;5.04;82.57;98351.94;5978330;28;20035;-71
2023/01/16 10:34:40;;;;;;;3.83;1.50;;;;;;;5.23;81.69;98343.66;5978336;29;20399;-74
2023/01/16 10:37:37;;;;;;;6.15;2.15;;;;;;;5.09;82.69;98325.97;5961313;29;20114;-73
2023/01/16 10:40:33;;;;;;;3.90;1.20;;;;;;;5.15;83.71;98333.19;5978967;29;20043;-74
2023/01/16 10:50:06;;;;;;;;;;;;;;;5.21;81.31;98295.72;5978480;29;20035;-72
2023/01/16 10:53:03;;;;;;;2.72;0.65;;;;;;;5.14;81.68;98277.19;5978011;29;19981;-70
2023/01/16 10:55:58;;;;;;;2.33;0.90;;;;;;;5.27;80.12;98266.16;5978257;29;20098;-70
2023/01/16 10:58:53;;;;;;;2.78;1.05;;;;;;;5.26;79.41;98251.38;5961684;29;20039;-70
2023/01/16 11:01:50;;;;;;;2.60;0.87;;;;;;;5.34;79.29;98257.41;5978084;29;20039;-71
2023/01/16 11:04:45;;;;;;;2.70;1.33;;;;;;;5.27;79.20;98239.88;5978674;29;20118;-71
2023/01/16 11:07:40;;;;;;;3.70;0.87;;;;;;;5.32;79.47;98230.47;5978730;29;20042;-71
2023/01/16 11:10:36;;;;;;;4.03;0.87;;;;;;;5.33;78.96;98223.41;5961270;29;20046;-70
2023/01/16 11:20:02;;;;;;;4.53;1.45;;;;;;;5.23;80.25;98207.88;5978430;29;20035;-69
2023/01/16 11:23:05;;;;;;;2.75;0.63;;;;;;;5.21;80.62;98203.78;5977561;29;20027;-72
2023/01/16 11:26:00;;;;;;;2.03;0.80;;;;;;;5.11;80.70;98182.19;5978010;29;20054;-70
2023/01/16 11:28:57;;;;;;;4.00;0.60;;;;;;;5.12;79.69;98160.16;5978417;29;20435;-73
2023/01/16 11:32:01;;;;;;;3.13;0.90;;;;;;;5.17;79.46;98163.09;5962492;29;20031;-72
2023/01/16 11:34:57;;;;;;;1.63;0.63;;;;;;;5.23;78.92;98155.34;5965540;29;20039;-73
2023/01/16 11:37:52;;;;;;;0.65;0.45;;;;;;;5.24;78.97;98154.34;5982551;29;20042;-71
2023/01/16 11:40:49;;;;;;;3.33;0.77;;;;;;;5.36;78.42;98146.84;5982237;29;20047;-73
2023/01/16 11:46:58;;;;;;;;;;;;;;;5.40;78.82;98124.50;5982809;29;20115;-70
2023/01/16 11:49:54;;;;;;;1.35;0.65;;;;;;;5.38;79.04;98118.63;5982430;29;20406;-71
2023/01/16 11:52:49;;;;;;;1.57;0.60;;;;;;;5.41;78.29;98116.44;5981149;29;20062;-70
2023/01/16 11:55:58;;;;;;;1.40;0.50;;;;;;;5.37;78.11;98093.31;5982095;29;20380;-68
2023/01/16 11:59:07;;;;;;;2.45;0.95;;;;;;;5.38;77.98;98106.28;5981390;29;20117;-71
2023/01/16 12:02:33;;;;;;;2.85;0.68;;;;;;;5.39;78.46;98091.31;5964269;29;20118;-69
2023/01/16 12:06:14;;;;;;;0.98;0.50;;;;;;;5.37;77.99;98067.88;5981779;29;20062;-69
2023/01/16 12:09:32;;;;;;;3.10;0.82;;;;;;;5.31;78.44;98058.06;5955826;29;20054;-69
2023/01/16 12:15:55;;;;;;;6.15;3.35;;;;;;;5.41;78.71;98047.28;5982093;29;20031;-69
2023/01/16 12:19:09;;;;;;;11.25;6.50;;;;;;;5.37;79.09;98040.78;5964101;29;20118;-69
2023/01/16 12:22:42;;;;;;;3.42;1.52;;;;;;;5.39;78.14;98038.78;5980148;29;20135;-70
2023/01/16 12:25:59;;;;;;;5.70;1.40;;;;;;;5.35;78.24;98038.31;5981290;29;20042;-73
2023/01/16 12:29:03;;;;;;;191.90;81.25;;;;;;;5.30;78.58;98016.19;5952007;29;20046;-71
2023/01/16 12:32:24;;;;;;;6.15;3.40;;;;;;;5.34;78.97;98031.44;5980516;29;20047;-69
2023/01/16 12:35:31;;;;;;;2.50;1.55;;;;;;;5.39;78.40;98012.50;5964085;29;20059;-70
2023/01/16 12:38:34;;;;;;;2.83;1.27;;;;;;;5.29;78.22;97988.31;5981196;29;20535;-74
2023/01/16 12:45:20;;;;;;;2.25;0.80;;;;;;;5.36;77.69;97973.44;5980130;28;20399;-71
2023/01/16 12:48:37;;;;;;;2.95;2.20;;;;;;;5.51;77.71;97981.34;5980663;29;20661;-71
2023/01/16 12:51:44;;;;;;;3.78;1.60;;;;;;;5.43;77.23;97951.50;5964051;29;20073;-70
2023/01/16 12:54:52;;;;;;;3.95;0.98;;;;;;;5.42;77.62;97949.06;5979909;29;20162;-70
2023/01/16 12:57:59;;;;;;;2.47;1.02;;;;;;;5.40;77.44;97937.94;5963370;29;20070;-70
2023/01/16 13:01:13;;;;;;;2.30;1.00;;;;;;;5.47;77.60;97936.22;5980647;29;20043;-73
2023/01/16 13:04:22;;;;;;;3.20;1.20;;;;;;;5.40;77.07;97935.31;5962749;29;20506;-70
2023/01/16 13:07:17;;;;;;;5.68;2.08;;;;;;;5.52;76.54;97939.09;5963520;29;20031;-70
2023/01/16 13:13:36;;;;;;;2.20;1.00;;;;;;;5.64;75.39;97921.06;5960242;29;20031;-70
2023/01/16 13:16:34;;;;;;;5.78;2.20;;;;;;;5.80;74.81;97918.22;5963417;29;20066;-71
2023/01/16 13:19:32;;;;;;;3.10;1.10;;;;;;;5.77;74.37;97906.25;5980481;29;20035;-71
2023/01/16 13:22:34;;;;;;;3.45;1.20;;;;;;;5.87;74.78;97906.00;5979276;29;20098;-70
2023/01/16 13:25:36;;;;;;;8.07;1.05;;;;;;;6.03;73.89;97910.22;5980230;29;20595;-69
2023/01/16 13:28:42;;;;;;;3.85;1.30;;;;;;;6.17;73.36;97912.00;5962654;29;20053;-70
2023/01/16 13:31:46;;;;;;;3.50;1.17;;;;;;;6.13;72.34;97874.72;5980038;29;20526;-70
2023/01/16 13:34:45;;;;;;;2.45;0.60;;;;;;;6.28;70.71;97866.72;5979126;29;20038;-70
2023/01/16 13:38:05;;;;;;;1.60;0.80;;;;;;;6.34;70.01;97887.03;5962840;29;20470;-69
2023/01/16 13:41:15;;;;;;;5.05;1.05;;;;;;;6.39;70.06;97879.38;5962585;29;20039;-71
2023/01/16 13:47:38;;;;;;;2.90;0.90;;;;;;;6.43;70.13;97880.66;5979774;29;20039;-70
2023/01/16 13:50:35;;;;;;;2.78;0.77;;;;;;;6.48;69.36;97865.91;5979602;29;20035;-72
2023/01/16 13:53:31;;;;;;;4.47;0.82;;;;;;;6.48;68.90;97860.66;5961618;29;20101;-70
2023/01/16 13:56:28;;;;;;;2.72;0.93;;;;;;;6.50;68.76;97870.97;5961677;29;20039;-69
2023/01/16 13:59:46;;;;;;;2.30;0.80;;;;;;;6.47;68.33;97861.66;5979549;29;20050;-69
2023/01/16 14:02:45;;;;;;;1.40;0.68;;;;;;;6.50;68.00;97860.44;5961578;29;20035;-70
2023/01/16 14:05:42;;;;;;;2.03;0.70;;;;;;;6.45;68.27;97849.69;5962112;29;20388;-71
2023/01/16 14:09:08;;;;;;;2.65;0.95;;;;;;;6.44;68.55;97856.75;5979269;28;20096;-72
2023/01/16 14:12:12;;;;;;;7.68;1.17;;;;;;;6.37;68.82;97852.44;5964270;29;20039;-71
2023/01/16 14:18:38;;;;;;;4.40;0.93;;;;;;;6.25;70.40;97856.63;5964885;29;20035;-72
2023/01/16 14:21:36;;;;;;;4.57;1.02;;;;;;;6.19;70.82;97863.44;5962020;29;20055;-72
2023/01/16 14:24:41;;;;;;;6.38;0.93;;;;;;;6.07;70.82;97840.44;5978314;29;20451;-71
2023/01/16 14:27:38;;;;;;;1.77;0.73;;;;;;;6.02;71.64;97842.81;5979049;29;20035;-72
2023/01/16 14:30:34;;;;;;;1.17;0.50;;;;;;;5.83;71.79;97837.16;5962061;29;20050;-70
2023/01/16 14:33:30;;;;;;;1.30;0.40;;;;;;;5.67;72.74;97784.81;5978349;29;20467;-72
2023/01/16 14:36:28;;;;;;;2.88;0.70;;;;;;;5.71;73.14;97822.88;5978842;29;20042;-72
2023/01/16 14:39:38;;;;;;;2.28;0.60;;;;;;;5.63;74.36;97830.06;5978969;29;20035;-72
2023/01/16 14:56:28;;;;;;;1.42;0.68;;;;;;;5.39;74.92;97789.16;5978579;29;20039;-72
2023/01/16 14:59:30;;;;;;;1.60;0.82;;;;;;;5.49;75.08;97813.31;5961915;29;20151;-72
2023/01/16 15:02:31;;;;;;;1.80;0.70;;;;;;;5.43;75.94;97809.63;5960600;29;20399;-72
2023/01/16 15:05:49;;;;;;;1.83;1.00;;;;;;;5.38;76.25;97801.47;5978602;28;20043;-73
2023/01/16 15:08:46;;;;;;;1.77;1.10;;;;;;;5.38;76.30;97811.19;5965680;29;20031;-73
2023/01/16 15:11:55;;;;;;;1.52;0.70;;;;;;;5.39;75.97;97812.81;5966318;29;20058;-70
2023/01/16 15:14:51;;;;;;;3.03;1.00;;;;;;;5.24;76.20;97797.09;5982504;29;20027;-72
2023/01/16 15:24:27;;;;;;;4.30;2.05;;;;;;;5.10;77.80;97800.56;5982086;29;20035;-71
2023/01/16 15:27:28;;;;;;;0.60;0.47;;;;;;;4.99;77.91;97779.19;5964035;29;20031;-72
2023/01/16 15:30:24;;;;;;;0.68;0.50;;;;;;;4.98;77.88;97765.25;5960612;29;20479;-71
2023/01/16 15:33:48;;;;;;;1.30;0.60;;;;;;;4.96;77.87;97769.06;5978516;29;20031;-72
2023/01/16 15:36:48;;;;;;;1.67;0.80;;;;;;;4.91;78.90;97763.53;5979810;29;20345;-72
2023/01/16 15:39:45;;;;;;;1.35;0.60;;;;;;;5.02;77.95;97768.31;5978940;29;20125;-72
2023/01/16 15:46:33;;;;;;;1.02;0.63;;;;;;;4.98;77.65;97752.13;5964750;29;20039;-72
2023/01/16 15:49:46;;;;;;;1.27;0.52;;;;;;;4.94;78.12;97753.50;5963866;29;20110;-72